Time;durP1;ratioP1;P1;durP2;ratioP2;P2;SDS_P1;SDS_P2;PMS_P1;PMS_P2;Temp;Humidity;BMP_temperature;BMP_pressure;BME280_temperature;BME280_humidity;BME280_pressure;Samples;Min_cycle;Max_cycle;Signal;HPM_P1;HPM_P2
2024/03/27 00:00:29;;;;;;;5.50;3.20;;;8.00;99.90;;;;;;4972519;28;20038;-76
2024/03/27 00:02:54;;;;;;;6.38;3.35;;;8.00;99.90;;;;;;4989621;28;20082;-76
2024/03/27 00:05:20;;;;;;;4.18;3.20;;;8.00;99.90;;;;;;4972294;28;20039;-76
2024/03/27 00:07:46;;;;;;;5.75;3.45;;;8.00;99.90;;;;;;4989479;28;20027;-76
2024/03/27 00:10:13;;;;;;;5.55;3.22;;;8.00;99.90;;;;;;4972239;28;20093;-76
2024/03/27 00:12:39;;;;;;;4.38;2.97;;;7.90;99.90;;;;;;4971991;28;20114;-76
2024/03/27 00:15:05;;;;;;;4.78;3.63;;;7.90;99.90;;;;;;4989244;28;20027;-76
2024/03/27 00:17:31;;;;;;;6.15;3.65;;;7.90;99.90;;;;;;4988902;28;20049;-76
2024/03/27 00:19:56;;;;;;;5.03;3.00;;;7.90;99.90;;;;;;4972118;28;20281;-76
2024/03/27 00:22:22;;;;;;;4.95;3.30;;;8.00;99.90;;;;;;4989217;28;20296;-76
2024/03/27 00:24:48;;;;;;;4.07;2.83;;;7.90;99.90;;;;;;4988984;28;20284;-76
2024/03/27 00:27:13;;;;;;;5.55;3.17;;;7.90;99.90;;;;;;4940117;28;20347;-76
2024/03/27 00:29:39;;;;;;;7.15;3.75;;;7.90;99.90;;;;;;4972054;28;20070;-76
2024/03/27 00:32:05;;;;;;;4.30;2.65;;;7.90;99.90;;;;;;4972033;28;20038;-76
2024/03/27 00:34:32;;;;;;;4.35;3.20;;;7.90;99.90;;;;;;4988981;28;20321;-76
2024/03/27 00:36:59;;;;;;;6.43;3.25;;;7.90;99.90;;;;;;4988648;28;20099;-77
2024/03/27 00:39:25;;;;;;;5.32;2.90;;;7.90;99.90;;;;;;4956371;28;20027;-76
2024/03/27 00:41:51;;;;;;;5.43;3.10;;;7.90;99.90;;;;;;4971638;28;20038;-76
2024/03/27 00:44:16;;;;;;;6.30;3.67;;;7.90;99.90;;;;;;4988568;28;20042;-77
2024/03/27 00:46:42;;;;;;;7.20;3.33;;;7.90;99.90;;;;;;4971715;28;20054;-77
2024/03/27 00:49:08;;;;;;;4.88;2.95;;;7.90;99.90;;;;;;4971323;28;20046;-76
2024/03/27 00:51:33;;;;;;;4.47;2.75;;;8.00;99.90;;;;;;4988664;28;20033;-76
2024/03/27 00:53:59;;;;;;;4.20;2.90;;;8.00;99.90;;;;;;4954577;28;20054;-76
2024/03/27 00:56:27;;;;;;;5.30;3.20;;;8.00;99.90;;;;;;4988590;28;20034;-76
2024/03/27 00:58:52;;;;;;;6.45;3.08;;;8.00;99.90;;;;;;4971922;28;20019;-76
2024/03/27 01:01:18;;;;;;;6.00;2.90;;;7.90;99.90;;;;;;4988491;28;20029;-76
2024/03/27 01:03:44;;;;;;;5.15;2.97;;;7.90;99.90;;;;;;4971280;28;20069;-76
2024/03/27 01:06:10;;;;;;;4.40;2.83;;;8.00;99.90;;;;;;4988564;28;20038;-76
2024/03/27 01:08:35;;;;;;;5.07;2.75;;;8.00;99.90;;;;;;4954994;28;20066;-76
2024/03/27 01:11:01;;;;;;;4.88;3.30;;;8.00;99.90;;;;;;4953314;28;20042;-76
2024/03/27 01:13:27;;;;;;;4.03;2.60;;;7.90;99.90;;;;;;4955026;28;20073;-76
2024/03/27 01:15:52;;;;;;;3.75;2.28;;;7.90;99.90;;;;;;4939158;28;20030;-76
2024/03/27 01:18:18;;;;;;;3.90;2.40;;;8.00;99.90;;;;;;4970823;28;20027;-76
2024/03/27 01:20:45;;;;;;;3.63;2.25;;;8.00;99.90;;;;;;4954988;28;20031;-76
2024/03/27 01:23:11;;;;;;;3.40;2.40;;;8.00;99.90;;;;;;4971179;28;20026;-76
2024/03/27 01:25:37;;;;;;;5.43;2.30;;;8.00;99.90;;;;;;4970976;28;20045;-76
2024/03/27 01:28:03;;;;;;;4.55;2.33;;;8.00;99.90;;;;;;4971010;28;20026;-76
2024/03/27 01:30:29;;;;;;;3.25;2.05;;;8.00;99.90;;;;;;4954813;28;20030;-76
2024/03/27 01:32:55;;;;;;;3.97;2.28;;;7.90;99.90;;;;;;4936204;28;20110;-76
2024/03/27 01:35:20;;;;;;;3.40;2.10;;;7.90;99.90;;;;;;4970513;28;20037;-76
2024/03/27 01:37:46;;;;;;;4.18;2.30;;;7.90;99.90;;;;;;4970892;28;20315;-76
2024/03/27 01:40:12;;;;;;;4.07;2.30;;;7.90;99.90;;;;;;4967270;28;20110;-76
2024/03/27 01:42:37;;;;;;;3.80;2.30;;;8.00;99.90;;;;;;4951212;29;20027;-76
2024/03/27 01:45:03;;;;;;;3.63;2.17;;;8.00;99.90;;;;;;4951184;29;20047;-76
2024/03/27 01:47:29;;;;;;;2.88;2.08;;;7.90;99.90;;;;;;4966991;29;20043;-76
2024/03/27 01:49:55;;;;;;;3.70;2.00;;;7.90;99.90;;;;;;4967165;29;20090;-75
2024/03/27 01:52:20;;;;;;;4.57;2.35;;;7.90;99.90;;;;;;4931861;29;20038;-75
2024/03/27 01:54:46;;;;;;;3.03;2.35;;;7.90;99.90;;;;;;4947472;29;20053;-75
2024/03/27 01:57:12;;;;;;;2.75;2.10;;;8.00;99.90;;;;;;4951134;29;20305;-75
2024/03/27 01:59:38;;;;;;;4.72;2.33;;;8.00;99.90;;;;;;4950891;29;20094;-75
2024/03/27 02:02:03;;;;;;;3.28;2.40;;;8.00;99.90;;;;;;4967211;29;20296;-76
2024/03/27 02:04:29;;;;;;;3.42;2.30;;;8.00;99.90;;;;;;4966735;28;20222;-76
2024/03/27 02:06:55;;;;;;;5.15;2.58;;;8.00;99.90;;;;;;4966712;29;20035;-76
2024/03/27 02:09:20;;;;;;;2.95;1.90;;;8.00;99.90;;;;;;4935036;29;20124;-76
2024/03/27 02:11:46;;;;;;;3.13;2.15;;;8.00;99.90;;;;;;4966674;29;20035;-76
2024/03/27 02:14:14;;;;;;;4.15;2.15;;;8.00;99.90;;;;;;4967731;29;20299;-76
2024/03/27 02:16:40;;;;;;;3.83;2.30;;;8.00;99.90;;;;;;4951154;29;20091;-76
2024/03/27 02:19:06;;;;;;;4.05;2.60;;;8.00;99.90;;;;;;4966668;29;20031;-76
2024/03/27 02:21:32;;;;;;;4.07;2.25;;;8.00;99.90;;;;;;4967591;29;20019;-76
2024/03/27 02:24:11;;;;;;;3.83;2.50;;;8.00;99.90;;;;;;4966558;29;20031;-76
2024/03/27 02:26:37;;;;;;;3.50;2.35;;;8.00;99.90;;;;;;4966480;29;20023;-76
2024/03/27 02:29:02;;;;;;;4.63;2.88;;;8.00;99.90;;;;;;4966440;29;20038;-76
2024/03/27 02:31:29;;;;;;;3.50;2.55;;;8.00;99.90;;;;;;4967580;29;20027;-76
2024/03/27 02:33:54;;;;;;;5.03;2.85;;;8.00;99.90;;;;;;4966454;29;20288;-76
2024/03/27 02:36:20;;;;;;;5.80;3.17;;;8.00;99.90;;;;;;4966290;29;20031;-76
2024/03/27 02:38:46;;;;;;;5.03;2.80;;;7.90;99.90;;;;;;4966479;29;20023;-76
2024/03/27 02:41:11;;;;;;;4.25;2.83;;;8.00;99.90;;;;;;4981990;28;20042;-76
2024/03/27 02:43:37;;;;;;;5.35;2.70;;;8.00;99.90;;;;;;4986406;28;20030;-76
2024/03/27 02:46:02;;;;;;;4.30;2.95;;;8.00;99.90;;;;;;4986853;28;20034;-75
2024/03/27 02:48:28;;;;;;;4.78;2.90;;;8.00;99.90;;;;;;4986663;28;20030;-76
2024/03/27 02:50:54;;;;;;;5.50;3.00;;;8.00;99.90;;;;;;4986465;28;20034;-76
2024/03/27 02:53:19;;;;;;;4.20;2.70;;;8.00;99.90;;;;;;4969411;28;20106;-76
2024/03/27 02:55:45;;;;;;;3.83;2.80;;;8.00;99.90;;;;;;4953414;28;20041;-76
2024/03/27 02:58:11;;;;;;;5.72;2.90;;;8.00;99.90;;;;;;4953499;28;20037;-76
2024/03/27 03:00:36;;;;;;;4.82;2.90;;;7.90;99.90;;;;;;4969168;28;20027;-76
2024/03/27 03:03:02;;;;;;;4.30;2.75;;;8.00;99.90;;;;;;4953481;28;20019;-76
2024/03/27 03:05:28;;;;;;;3.75;2.70;;;7.90;99.90;;;;;;4986450;28;20062;-76
2024/03/27 03:07:53;;;;;;;3.67;2.75;;;8.00;99.90;;;;;;4937517;28;20073;-75
2024/03/27 03:10:19;;;;;;;4.78;2.92;;;8.00;99.90;;;;;;4937523;28;20030;-76
2024/03/27 03:12:45;;;;;;;5.55;2.88;;;8.00;99.90;;;;;;4969119;28;20035;-76
2024/03/27 03:15:10;;;;;;;6.35;2.88;;;7.90;99.90;;;;;;4969171;28;20038;-76
2024/03/27 03:17:36;;;;;;;4.18;2.92;;;7.90;99.90;;;;;;4940474;28;20045;-76
2024/03/27 03:20:06;;;;;;;4.97;2.90;;;7.90;99.90;;;;;;4973256;28;20058;-75
2024/03/27 03:22:32;;;;;;;4.30;3.20;;;7.90;99.90;;;;;;4957711;28;20037;-75
2024/03/27 03:24:58;;;;;;;4.35;2.63;;;7.90;99.90;;;;;;4972635;28;20058;-76
2024/03/27 03:27:24;;;;;;;4.07;2.95;;;7.90;99.90;;;;;;4957100;28;20173;-76
2024/03/27 03:29:50;;;;;;;5.00;2.63;;;7.90;99.90;;;;;;4972876;28;20081;-75
2024/03/27 03:32:16;;;;;;;5.90;3.00;;;7.90;99.90;;;;;;4956945;28;20030;-75
2024/03/27 03:34:41;;;;;;;5.03;2.88;;;7.80;99.90;;;;;;4953430;29;20043;-76
2024/03/27 03:37:07;;;;;;;4.55;3.20;;;7.90;99.90;;;;;;4988966;28;20051;-76
2024/03/27 03:39:33;;;;;;;6.07;2.72;;;7.80;99.90;;;;;;4972601;28;20180;-76
2024/03/27 03:41:58;;;;;;;4.82;2.40;;;7.90;99.90;;;;;;4972715;28;20031;-75
2024/03/27 03:44:24;;;;;;;3.63;2.20;;;7.80;99.90;;;;;;4989383;28;20116;-76
2024/03/27 03:46:50;;;;;;;3.80;2.05;;;7.80;99.90;;;;;;4956548;28;20161;-76
2024/03/27 03:49:15;;;;;;;3.28;2.15;;;7.90;99.90;;;;;;4956613;28;20325;-76
2024/03/27 03:51:43;;;;;;;3.65;2.20;;;7.90;99.90;;;;;;4957256;28;20184;-76
2024/03/27 03:54:08;;;;;;;4.35;2.85;;;7.90;99.90;;;;;;4957118;28;20023;-76
2024/03/27 03:56:34;;;;;;;4.60;2.70;;;7.90;99.90;;;;;;4989651;28;20061;-76
2024/03/27 03:59:00;;;;;;;3.72;2.78;;;7.90;99.90;;;;;;4956596;28;20195;-76
2024/03/27 04:01:27;;;;;;;5.32;3.15;;;7.90;99.90;;;;;;4972651;28;20050;-75
2024/03/27 04:03:52;;;;;;;4.32;2.88;;;7.90;99.90;;;;;;4940918;28;20026;-75
2024/03/27 04:06:18;;;;;;;4.80;2.55;;;7.90;99.90;;;;;;4972991;28;20042;-75
2024/03/27 04:08:44;;;;;;;8.05;4.13;;;7.90;99.90;;;;;;4957886;28;20158;-74
2024/03/27 04:11:09;;;;;;;4.63;2.78;;;7.90;99.90;;;;;;4973979;28;20169;-74
2024/03/27 04:13:35;;;;;;;5.97;3.47;;;7.90;99.90;;;;;;4973881;28;20162;-75
2024/03/27 04:16:01;;;;;;;4.68;3.03;;;7.90;99.90;;;;;;4961685;28;20023;-75
2024/03/27 04:18:27;;;;;;;4.22;2.90;;;7.90;99.90;;;;;;4963031;28;20037;-74
2024/03/27 04:20:52;;;;;;;5.90;3.10;;;7.90;99.90;;;;;;4942593;28;20027;-74
2024/03/27 04:23:18;;;;;;;7.95;3.28;;;7.90;99.90;;;;;;4958963;28;20184;-75
2024/03/27 04:25:50;;;;;;;4.68;2.90;;;7.90;99.90;;;;;;4958581;28;20054;-74
2024/03/27 04:28:15;;;;;;;4.28;2.47;;;7.90;99.90;;;;;;4975252;28;20104;-76
2024/03/27 04:30:44;;;;;;;2.92;1.60;;;7.80;99.90;;;;;;4996508;28;20022;-75
2024/03/27 04:33:11;;;;;;;1.65;1.50;;;7.80;99.90;;;;;;4981450;28;20107;-75
2024/03/27 04:35:37;;;;;;;2.17;1.30;;;7.90;99.90;;;;;;4976814;28;20037;-75
2024/03/27 04:38:03;;;;;;;2.75;1.20;;;7.90;99.90;;;;;;4942535;28;20199;-75
2024/03/27 04:40:28;;;;;;;2.92;1.10;;;7.90;99.90;;;;;;4974122;28;20055;-75
2024/03/27 04:42:54;;;;;;;1.23;0.98;;;7.80;99.90;;;;;;4974864;28;20022;-75
2024/03/27 04:45:21;;;;;;;1.60;1.00;;;7.90;99.90;;;;;;4975666;28;20042;-75
2024/03/27 04:47:47;;;;;;;1.85;1.00;;;7.90;99.90;;;;;;4963219;28;20031;-75
2024/03/27 04:50:13;;;;;;;2.42;1.48;;;7.90;99.90;;;;;;4964317;28;20031;-75
2024/03/27 04:52:38;;;;;;;1.83;1.00;;;7.90;99.90;;;;;;4960529;28;20090;-75
2024/03/27 04:55:04;;;;;;;2.28;0.98;;;7.90;99.90;;;;;;4976240;28;20039;-75
2024/03/27 04:57:30;;;;;;;0.70;0.70;;;7.90;99.90;;;;;;4975434;28;20034;-74
2024/03/27 04:59:56;;;;;;;1.88;0.93;;;7.90;99.90;;;;;;4961617;28;20014;-75
2024/03/27 05:02:22;;;;;;;1.13;1.00;;;7.90;99.90;;;;;;4978919;28;20101;-76
2024/03/27 05:04:48;;;;;;;1.05;0.90;;;7.90;99.90;;;;;;4949664;28;20042;-76
2024/03/27 05:07:14;;;;;;;0.70;0.70;;;7.90;99.90;;;;;;4965436;28;20033;-76
2024/03/27 05:09:40;;;;;;;1.15;0.70;;;7.80;99.90;;;;;;4961702;28;20035;-75
2024/03/27 05:12:06;;;;;;;0.73;0.73;;;7.80;99.90;;;;;;4960316;28;20192;-74
2024/03/27 05:14:31;;;;;;;0.60;0.60;;;7.70;99.90;;;;;;4962722;28;20035;-75
2024/03/27 05:16:57;;;;;;;0.70;0.70;;;7.70;99.90;;;;;;4962307;28;20034;-75
2024/03/27 05:19:23;;;;;;;1.00;0.70;;;7.60;99.90;;;;;;4962032;28;20038;-75
2024/03/27 05:21:52;;;;;;;0.80;0.80;;;7.60;99.90;;;;;;4961827;28;20029;-75
2024/03/27 05:24:18;;;;;;;0.98;0.77;;;7.50;99.90;;;;;;4960045;28;20153;-76
2024/03/27 05:26:46;;;;;;;0.75;0.70;;;7.50;99.90;;;;;;4988494;28;20101;-76
2024/03/27 05:29:12;;;;;;;0.70;0.70;;;7.50;99.90;;;;;;4988644;28;20050;-76
2024/03/27 05:31:51;;;;;;;1.08;0.60;;;7.50;99.90;;;;;;4971177;28;20369;-76
2024/03/27 05:34:17;;;;;;;0.77;0.70;;;7.50;99.90;;;;;;4939224;28;20038;-76
2024/03/27 05:36:42;;;;;;;0.73;0.70;;;7.50;99.90;;;;;;4970791;28;20025;-76
2024/03/27 05:39:08;;;;;;;0.65;0.65;;;7.50;99.90;;;;;;4987294;28;20069;-76
2024/03/27 05:41:35;;;;;;;0.60;0.60;;;7.40;99.90;;;;;;4987649;28;20051;-76
2024/03/27 05:44:00;;;;;;;0.60;0.60;;;7.40;99.90;;;;;;4970695;28;20019;-75
2024/03/27 05:46:26;;;;;;;0.50;0.50;;;7.40;99.90;;;;;;4970827;28;20042;-76
2024/03/27 05:48:54;;;;;;;0.82;0.60;;;7.40;99.90;;;;;;4970485;28;20051;-76
2024/03/27 05:51:20;;;;;;;0.50;0.50;;;7.30;99.90;;;;;;4987439;28;20019;-74
2024/03/27 05:53:46;;;;;;;0.82;0.50;;;7.30;99.90;;;;;;4987632;28;20035;-76
2024/03/27 05:56:11;;;;;;;0.63;0.60;;;7.30;99.90;;;;;;4970554;28;20052;-75
2024/03/27 05:58:37;;;;;;;2.60;0.75;;;7.30;99.90;;;;;;4987295;28;20015;-75
2024/03/27 06:01:03;;;;;;;1.88;0.60;;;7.30;99.90;;;;;;4987450;28;20031;-76
2024/03/27 06:03:28;;;;;;;1.83;0.80;;;7.40;99.90;;;;;;4987366;28;20066;-76
2024/03/27 06:05:54;;;;;;;2.05;0.70;;;7.30;99.90;;;;;;4970434;28;20027;-75
2024/03/27 06:08:19;;;;;;;1.27;0.73;;;7.30;99.90;;;;;;4987170;28;20038;-76
2024/03/27 06:10:47;;;;;;;1.50;0.73;;;7.30;99.90;;;;;;4986900;28;20056;-75
2024/03/27 06:13:13;;;;;;;2.60;0.90;;;7.40;99.90;;;;;;4954910;28;20027;-76
2024/03/27 06:15:39;;;;;;;3.10;0.73;;;7.30;99.90;;;;;;4969965;28;20053;-76
2024/03/27 06:18:05;;;;;;;1.80;0.73;;;7.40;99.90;;;;;;4954160;28;20041;-76
2024/03/27 06:20:32;;;;;;;3.30;0.90;;;7.40;99.90;;;;;;4934779;29;20019;-76
2024/03/27 06:22:58;;;;;;;3.03;1.30;;;7.40;99.90;;;;;;4967759;28;20341;-76
2024/03/27 06:25:23;;;;;;;3.58;1.05;;;7.50;99.90;;;;;;4969777;28;20031;-76
2024/03/27 06:27:49;;;;;;;4.13;1.00;;;7.50;99.90;;;;;;4969866;28;20027;-75
2024/03/27 06:30:15;;;;;;;3.97;1.17;;;7.60;99.90;;;;;;4950489;29;20058;-76
2024/03/27 06:32:42;;;;;;;4.80;1.00;;;7.60;99.90;;;;;;4949303;28;20035;-76
2024/03/27 06:35:08;;;;;;;6.80;1.10;;;7.60;99.90;;;;;;4953768;28;20026;-75
2024/03/27 06:37:34;;;;;;;4.38;1.20;;;7.70;99.90;;;;;;4969718;28;20196;-75
2024/03/27 06:40:00;;;;;;;2.35;0.93;;;7.70;99.90;;;;;;4986049;28;20051;-75
2024/03/27 06:42:26;;;;;;;5.82;1.38;;;7.80;99.90;;;;;;4950274;29;20023;-76
2024/03/27 06:44:52;;;;;;;5.50;1.27;;;7.90;99.90;;;;;;4966712;28;20046;-76
2024/03/27 06:47:26;;;;;;;8.05;1.42;;;7.90;99.90;;;;;;4953444;28;20038;-76
2024/03/27 06:49:54;;;;;;;8.25;1.40;;;7.90;99.90;;;;;;4955997;28;20046;-76
2024/03/27 06:52:20;;;;;;;3.53;1.08;;;8.00;99.90;;;;;;4985389;28;20243;-74
2024/03/27 06:54:48;;;;;;;6.68;1.20;;;8.10;99.90;;;;;;4953412;28;20030;-74
2024/03/27 06:57:14;;;;;;;5.07;1.00;;;8.10;99.90;;;;;;4937853;28;20105;-75
2024/03/27 06:59:40;;;;;;;3.75;0.98;;;8.10;99.90;;;;;;4953462;28;20046;-76
2024/03/27 07:02:06;;;;;;;5.70;1.13;;;8.10;99.90;;;;;;4969575;28;20031;-75
2024/03/27 07:04:31;;;;;;;8.35;2.42;;;8.10;99.90;;;;;;4986447;28;20027;-75
2024/03/27 07:06:57;;;;;;;5.40;1.48;;;8.20;99.90;;;;;;4986372;28;20031;-75
2024/03/27 07:09:23;;;;;;;8.20;1.30;;;8.20;99.90;;;;;;4953447;28;20026;-76
2024/03/27 07:11:49;;;;;;;3.17;1.13;;;8.20;99.90;;;;;;4953121;28;20243;-75
2024/03/27 07:14:15;;;;;;;5.13;1.08;;;8.30;99.90;;;;;;4953197;28;20046;-76
2024/03/27 07:16:43;;;;;;;4.15;1.10;;;8.30;99.90;;;;;;4969396;28;20022;-76
2024/03/27 07:19:09;;;;;;;6.30;1.25;;;8.30;99.90;;;;;;4953649;28;20031;-75
2024/03/27 07:21:35;;;;;;;8.55;1.70;;;8.30;99.90;;;;;;4969452;28;20030;-76
2024/03/27 07:24:00;;;;;;;5.75;1.30;;;8.30;99.90;;;;;;4986295;28;20105;-75
2024/03/27 07:26:26;;;;;;;5.88;1.27;;;8.30;99.90;;;;;;4969056;28;20241;-76
2024/03/27 07:28:52;;;;;;;4.30;1.15;;;8.30;99.90;;;;;;4985983;28;20037;-76
2024/03/27 07:31:17;;;;;;;3.22;1.13;;;8.30;99.90;;;;;;4986245;28;20245;-76
2024/03/27 07:33:43;;;;;;;5.18;1.30;;;8.30;99.90;;;;;;4953291;28;20018;-76
2024/03/27 07:36:08;;;;;;;3.35;1.23;;;8.30;99.90;;;;;;4952763;28;20066;-76
2024/03/27 07:38:34;;;;;;;4.15;1.17;;;8.40;99.90;;;;;;4933847;29;20027;-76
2024/03/27 07:41:00;;;;;;;9.73;1.40;;;8.40;99.90;;;;;;4966864;28;20209;-76
2024/03/27 07:43:25;;;;;;;7.68;1.20;;;8.50;99.90;;;;;;4952876;28;20030;-76
2024/03/27 07:45:51;;;;;;;3.20;1.38;;;8.50;99.90;;;;;;4952512;28;20309;-75
2024/03/27 07:48:17;;;;;;;5.22;1.55;;;8.60;99.90;;;;;;4968988;28;20037;-76
2024/03/27 07:50:43;;;;;;;2.53;1.17;;;8.60;99.90;;;;;;4968840;28;20030;-76
2024/03/27 07:53:08;;;;;;;3.88;1.30;;;8.70;99.90;;;;;;4952842;28;20026;-77
2024/03/27 07:55:34;;;;;;;1.55;1.00;;;8.70;99.90;;;;;;4985803;28;20054;-76
2024/03/27 07:58:03;;;;;;;4.22;1.10;;;8.80;99.90;;;;;;4952728;28;20308;-74
2024/03/27 08:00:28;;;;;;;4.47;1.20;;;8.80;99.90;;;;;;4968849;28;20086;-76
2024/03/27 08:02:54;;;;;;;3.90;1.10;;;8.80;99.90;;;;;;4954328;28;20077;-76
2024/03/27 08:05:20;;;;;;;2.15;0.98;;;8.80;99.90;;;;;;4989448;28;20030;-76
2024/03/27 08:07:46;;;;;;;6.20;1.27;;;8.80;99.90;;;;;;4972283;28;20086;-75
2024/03/27 08:10:13;;;;;;;4.93;1.10;;;8.80;99.90;;;;;;4972033;28;20234;-76
2024/03/27 08:12:38;;;;;;;2.33;0.77;;;8.90;99.90;;;;;;4956302;28;20188;-76
2024/03/27 08:15:06;;;;;;;2.60;1.13;;;8.90;99.90;;;;;;4954533;28;20098;-76
2024/03/27 08:17:32;;;;;;;3.25;0.80;;;8.80;99.90;;;;;;4972473;28;20073;-75
2024/03/27 08:19:58;;;;;;;2.70;0.90;;;8.80;99.90;;;;;;4972120;28;20050;-75
2024/03/27 08:22:23;;;;;;;1.45;1.00;;;8.70;99.90;;;;;;4971899;28;20082;-75
2024/03/27 08:24:51;;;;;;;3.85;1.05;;;8.70;99.90;;;;;;4988847;28;20064;-76
2024/03/27 08:27:16;;;;;;;5.40;1.10;;;8.60;99.90;;;;;;4956427;28;20033;-76
2024/03/27 08:29:42;;;;;;;3.70;1.10;;;8.50;99.90;;;;;;4939841;28;20097;-76
2024/03/27 08:32:08;;;;;;;4.80;1.10;;;8.50;99.90;;;;;;4955817;28;20086;-76
2024/03/27 08:34:34;;;;;;;5.47;1.10;;;8.40;99.90;;;;;;4936529;29;20055;-76
2024/03/27 08:37:00;;;;;;;6.00;1.50;;;8.40;99.90;;;;;;4969705;28;20023;-76
2024/03/27 08:39:26;;;;;;;5.43;1.23;;;8.30;99.90;;;;;;4955385;28;20031;-75
2024/03/27 08:41:54;;;;;;;2.35;1.10;;;8.30;99.90;;;;;;4988805;28;20077;-75
2024/03/27 08:44:19;;;;;;;5.97;1.20;;;8.30;99.90;;;;;;4952152;29;20023;-76
2024/03/27 08:46:45;;;;;;;5.85;1.25;;;8.20;99.90;;;;;;4967299;28;20027;-76
2024/03/27 08:49:12;;;;;;;3.65;1.08;;;8.20;99.90;;;;;;4971269;28;20061;-75
2024/03/27 08:51:38;;;;;;;3.42;1.00;;;8.10;99.90;;;;;;4956008;28;20164;-76
2024/03/27 08:54:04;;;;;;;1.38;1.17;;;8.00;99.90;;;;;;4939636;28;20034;-78
2024/03/27 08:56:29;;;;;;;5.68;1.05;;;7.80;99.90;;;;;;4988015;28;20078;-76
2024/03/27 08:58:55;;;;;;;4.00;1.00;;;7.50;99.90;;;;;;4988053;28;20284;-77
2024/03/27 09:01:21;;;;;;;4.10;1.50;;;7.40;99.90;;;;;;4954730;28;20039;-77
2024/03/27 09:03:46;;;;;;;1.75;1.15;;;7.30;99.90;;;;;;4938726;28;20054;-76
2024/03/27 09:06:13;;;;;;;4.13;1.13;;;7.20;99.90;;;;;;4987868;28;20026;-78
2024/03/27 09:08:38;;;;;;;2.40;1.13;;;7.10;99.90;;;;;;4970687;28;20184;-78
2024/03/27 09:11:05;;;;;;;5.65;1.38;;;7.00;99.90;;;;;;4954863;28;20038;-77
2024/03/27 09:13:31;;;;;;;3.63;1.10;;;7.00;99.90;;;;;;4970601;28;20143;-76
2024/03/27 09:15:58;;;;;;;3.83;1.25;;;7.00;99.90;;;;;;4970588;28;20046;-77
2024/03/27 09:18:24;;;;;;;3.72;0.93;;;6.90;99.90;;;;;;4970962;28;20057;-77
2024/03/27 09:21:00;;;;;;;9.50;1.30;;;6.80;99.90;;;;;;4970708;28;20233;-76
2024/03/27 09:23:26;;;;;;;4.75;1.20;;;6.80;99.90;;;;;;4956039;28;20031;-76
2024/03/27 09:25:59;;;;;;;3.95;0.82;;;6.70;99.90;;;;;;4938912;28;20240;-76
2024/03/27 09:28:25;;;;;;;4.85;0.98;;;6.70;99.90;;;;;;4987727;28;20089;-77
2024/03/27 09:30:51;;;;;;;4.85;1.00;;;6.70;99.90;;;;;;4987636;28;20272;-77
2024/03/27 09:33:16;;;;;;;4.22;1.10;;;6.70;99.90;;;;;;4970582;28;20031;-76
2024/03/27 09:35:43;;;;;;;2.20;0.73;;;6.70;99.90;;;;;;4938869;28;20105;-76
2024/03/27 09:38:10;;;;;;;1.48;0.82;;;6.60;99.90;;;;;;4970529;28;20200;-77
2024/03/27 09:40:47;;;;;;;2.80;0.90;;;6.60;99.90;;;;;;4987195;28;20078;-75
2024/03/27 09:43:13;;;;;;;4.40;1.33;;;6.70;99.90;;;;;;4987298;28;20328;-77
2024/03/27 09:45:39;;;;;;;2.47;0.95;;;6.70;99.90;;;;;;4954217;28;20031;-78
2024/03/27 09:48:05;;;;;;;2.42;0.73;;;6.80;99.90;;;;;;4970428;28;20232;-78
2024/03/27 09:50:32;;;;;;;4.05;1.20;;;6.90;99.90;;;;;;4970347;28;20026;-77
2024/03/27 09:52:58;;;;;;;3.08;0.70;;;7.10;99.90;;;;;;4970289;28;20027;-77
2024/03/27 09:55:24;;;;;;;3.78;0.80;;;7.20;99.90;;;;;;4986953;28;20045;-77
2024/03/27 09:57:50;;;;;;;5.35;0.98;;;6.90;99.90;;;;;;4954190;28;20093;-77
2024/03/27 10:00:16;;;;;;;4.40;1.00;;;6.90;99.90;;;;;;4953882;28;20043;-77
2024/03/27 10:02:42;;;;;;;4.38;1.15;;;6.90;99.90;;;;;;4954179;28;20092;-78
2024/03/27 10:05:10;;;;;;;3.58;1.13;;;7.00;99.90;;;;;;4969957;28;20094;-78
2024/03/27 10:07:36;;;;;;;5.22;1.08;;;7.10;99.90;;;;;;4987122;28;20027;-78
2024/03/27 10:10:03;;;;;;;3.38;1.05;;;7.00;99.90;;;;;;4953932;28;20034;-77
2024/03/27 10:12:28;;;;;;;3.03;0.90;;;6.90;99.90;;;;;;4970250;28;20034;-77
2024/03/27 10:14:54;;;;;;;3.13;1.05;;;7.00;99.90;;;;;;4987148;28;20042;-77
2024/03/27 10:17:20;;;;;;;3.20;0.70;;;6.90;99.90;;;;;;4986989;28;20050;-77
2024/03/27 10:19:45;;;;;;;7.80;2.22;;;6.80;99.90;;;;;;4986883;28;20034;-77
2024/03/27 10:22:11;;;;;;;5.82;1.90;;;6.80;99.90;;;;;;4969618;28;20022;-77
2024/03/27 10:24:37;;;;;;;4.20;1.10;;;6.80;99.90;;;;;;4970049;28;20035;-76
2024/03/27 10:27:03;;;;;;;2.92;1.30;;;6.70;99.90;;;;;;4969540;28;20044;-78
2024/03/27 10:29:29;;;;;;;4.88;0.90;;;6.90;99.90;;;;;;4986664;28;20034;-77
2024/03/27 10:31:55;;;;;;;7.60;1.83;;;7.00;99.90;;;;;;4969500;28;20026;-75
2024/03/27 10:34:21;;;;;;;3.30;0.80;;;7.10;99.90;;;;;;4986253;28;20092;-76
2024/03/27 10:36:47;;;;;;;3.92;1.23;;;7.10;99.90;;;;;;4968897;28;20022;-76
2024/03/27 10:39:17;;;;;;;6.00;1.77;;;7.20;99.90;;;;;;4953504;28;20060;-76
2024/03/27 10:41:43;;;;;;;6.80;1.52;;;7.20;99.90;;;;;;4953716;28;20051;-76
2024/03/27 10:44:11;;;;;;;3.35;0.98;;;7.30;99.90;;;;;;4969824;28;20027;-76
2024/03/27 10:46:37;;;;;;;3.17;0.90;;;7.20;99.90;;;;;;4969215;28;20041;-76
2024/03/27 10:49:03;;;;;;;9.50;3.25;;;7.30;99.90;;;;;;4969296;28;20022;-76
2024/03/27 10:51:29;;;;;;;7.20;2.80;;;7.50;99.90;;;;;;4969283;28;20299;-77
2024/03/27 10:53:54;;;;;;;12.77;5.88;;;7.40;99.90;;;;;;4969049;28;20022;-75
2024/03/27 10:56:20;;;;;;;3.13;1.58;;;7.50;99.90;;;;;;4969069;28;20110;-76
2024/03/27 10:58:45;;;;;;;37.60;22.25;;;7.50;99.90;;;;;;4969635;28;20027;-76
2024/03/27 11:01:12;;;;;;;47.70;26.77;;;8.20;99.90;;;;;;4969448;28;20019;-74
2024/03/27 11:03:39;;;;;;;4.97;3.13;;;8.30;99.90;;;;;;4986514;28;20058;-76
2024/03/27 11:06:05;;;;;;;8.30;4.00;;;8.10;99.90;;;;;;4986385;28;20101;-76
2024/03/27 11:08:32;;;;;;;3.72;1.17;;;8.40;99.90;;;;;;4953351;28;20037;-77
2024/03/27 11:11:09;;;;;;;3.67;1.80;;;8.50;99.90;;;;;;4969328;28;20262;-76
2024/03/27 11:13:35;;;;;;;23.85;13.02;;;8.90;99.90;;;;;;4953633;28;20046;-76
2024/03/27 11:16:00;;;;;;;8.68;3.72;;;9.10;99.90;;;;;;4985614;28;20212;-76
2024/03/27 11:18:30;;;;;;;46.00;17.30;;;9.80;99.90;;;;;;4968889;28;20030;-76
2024/03/27 11:20:56;;;;;;;26.63;11.13;;;10.40;99.90;;;;;;4986124;28;20024;-75
2024/03/27 11:23:30;;;;;;;10.07;4.13;;;11.50;99.90;;;;;;4986204;28;20184;-76
2024/03/27 11:25:56;;;;;;;8.55;3.60;;;12.10;99.90;;;;;;4953859;28;20022;-75
2024/03/27 11:28:22;;;;;;;112.78;56.50;;;12.10;99.90;;;;;;4985723;28;20050;-76
2024/03/27 11:30:47;;;;;;;21.23;9.07;;;11.30;99.90;;;;;;4968927;28;20027;-75
2024/03/27 11:33:14;;;;;;;23.10;12.38;;;11.10;99.90;;;;;;4969351;28;20026;-75
2024/03/27 11:35:40;;;;;;;12.38;5.85;;;11.30;99.90;;;;;;4952811;28;20091;-76
2024/03/27 11:38:06;;;;;;;4.80;2.13;;;11.60;99.90;;;;;;4971532;28;20023;-75
2024/03/27 11:40:32;;;;;;;6.25;3.05;;;11.40;99.90;;;;;;4956163;28;20301;-75
2024/03/27 11:42:57;;;;;;;3.72;1.13;;;11.90;99.90;;;;;;4972187;28;20050;-75
2024/03/27 11:45:26;;;;;;;6.43;2.00;;;11.60;99.90;;;;;;4973513;28;20188;-75
2024/03/27 11:47:56;;;;;;;6.20;2.15;;;11.10;99.90;;;;;;4973084;28;20046;-76
2024/03/27 11:50:25;;;;;;;1.83;1.00;;;12.00;99.90;;;;;;4973677;28;20081;-77
2024/03/27 11:52:51;;;;;;;7.05;1.98;;;10.80;99.90;;;;;;4958238;28;20030;-74
2024/03/27 11:55:17;;;;;;;6.32;2.35;;;11.60;99.90;;;;;;4995205;28;20085;-74
2024/03/27 11:57:43;;;;;;;3.45;1.60;;;11.40;99.90;;;;;;4994605;28;20026;-74
2024/03/27 12:00:12;;;;;;;3.60;1.92;;;10.80;99.90;;;;;;4978002;28;20035;-74
2024/03/27 12:02:41;;;;;;;2.97;0.95;;;11.10;99.90;;;;;;4994292;28;20082;-75
2024/03/27 12:05:07;;;;;;;3.35;1.40;;;11.40;99.90;;;;;;4962196;28;20101;-75
2024/03/27 12:07:33;;;;;;;5.45;1.50;;;11.00;99.90;;;;;;4975959;28;20296;-75
2024/03/27 12:10:09;;;;;;;6.57;2.30;;;11.10;99.90;;;;;;4993478;28;20061;-75
2024/03/27 12:12:35;;;;;;;4.97;1.92;;;11.20;99.90;;;;;;4976476;28;20196;-75
2024/03/27 12:15:00;;;;;;;4.18;1.42;;;11.60;99.90;;;;;;4996419;28;20019;-75
2024/03/27 12:17:36;;;;;;;3.33;1.40;;;11.80;99.90;;;;;;4962160;28;20168;-75
2024/03/27 12:20:06;;;;;;;5.00;1.98;;;12.90;99.90;;;;;;4960130;28;20022;-76
2024/03/27 12:22:33;;;;;;;2.67;1.23;;;12.90;99.90;;;;;;4994424;28;20090;-74
2024/03/27 12:24:59;;;;;;;13.93;7.43;;;12.30;99.90;;;;;;4975999;28;20030;-74
2024/03/27 12:27:29;;;;;;;6.03;4.13;;;12.00;99.90;;;;;;4978162;28;20046;-76
2024/03/27 12:29:55;;;;;;;9.43;2.50;;;11.70;99.90;;;;;;4994173;28;20352;-76
2024/03/27 12:32:21;;;;;;;6.50;1.83;;;11.10;99.90;;;;;;4960671;28;20038;-76
2024/03/27 12:34:47;;;;;;;6.00;2.97;;;10.60;99.90;;;;;;4956435;29;20027;-76
2024/03/27 12:37:14;;;;;;;3.30;1.10;;;11.50;99.90;;;;;;4976192;28;20078;-76
2024/03/27 12:39:40;;;;;;;4.30;1.95;;;12.30;99.90;;;;;;4962724;28;20078;-76
2024/03/27 12:42:06;;;;;;;5.70;1.63;;;12.00;99.90;;;;;;4961353;28;20098;-77
2024/03/27 12:44:32;;;;;;;8.88;4.75;;;11.50;99.90;;;;;;4959522;28;20053;-76
2024/03/27 12:46:57;;;;;;;31.67;15.85;;;11.30;99.90;;;;;;4991858;28;20304;-75
2024/03/27 12:49:23;;;;;;;5.53;2.70;;;12.20;99.90;;;;;;4972978;28;20041;-75